Valleydale, Ohio
Current Conditions -  °F | °C
As of 10:53 PM on Saturday 24 Jan 2015 (Local Time) from KLUK Reporting Station
Broken Clouds Broken Clouds  
Wind Chill: 23°   Ceiling: 12000
Heat Index: 29°   Visibility: 7mi
Dew Point: 27°   Wind: 6mph
Humidity: 92%   Direction: 220°SW
Pressure: 29.81"   Gusts: NA
Location:  39.1981°N, 84.4817°W
Report Text: KLUK 250353Z 22005KT 7SM BKN120 M02/M03 A2981 RMK AO2 SLP097 T10171028
Loading
Personal Weather Stations






























Interactive Weather Map New forecast layout! Learn more

10-Day Weather Forecast

Advertisements
Track Severe Weather on mobile